createdAt,value
2018-08-03T00:01:47.990Z,101153.20
2018-08-03T00:04:16.332Z,101158.08
2018-08-03T00:06:44.692Z,101158.44
2018-08-03T00:09:13.037Z,101155.08
2018-08-03T00:11:41.451Z,101154.16
2018-08-03T00:14:09.820Z,101146.96
2018-08-03T00:16:38.165Z,101150.38
2018-08-03T00:19:06.532Z,101153.05
2018-08-03T00:21:35.081Z,101154.84
2018-08-03T00:24:03.487Z,101155.69
2018-08-03T00:26:31.872Z,101158.30
2018-08-03T00:29:00.270Z,101159.86
2018-08-03T00:31:28.698Z,101155.55
2018-08-03T00:33:57.030Z,101165.54
2018-08-03T00:36:25.362Z,101164.45
2018-08-03T00:38:53.667Z,101158.30
2018-08-03T00:41:22.021Z,101158.48
2018-08-03T00:43:50.670Z,101160.47
2018-08-03T00:46:19.103Z,101166.16
2018-08-03T00:48:47.483Z,101168.30
2018-08-03T00:51:15.892Z,101164.42
2018-08-03T00:53:44.240Z,101172.50
2018-08-03T00:56:12.604Z,101175.43
2018-08-03T00:58:40.994Z,101169.23
2018-08-03T01:01:09.347Z,101173.22
2018-08-03T01:03:37.735Z,101175.61
2018-08-03T01:06:06.112Z,101172.95
2018-08-03T01:08:34.506Z,101174.51
2018-08-03T01:11:03.018Z,101176.89
2018-08-03T01:13:31.394Z,101174.90
2018-08-03T01:16:00.389Z,101176.96
2018-08-03T01:18:28.727Z,101166.91
2018-08-03T01:20:57.093Z,101175.19
2018-08-03T01:23:26.979Z,101169.45
2018-08-03T01:25:55.358Z,101168.33
2018-08-03T01:28:23.770Z,101164.42
2018-08-03T01:30:52.148Z,101165.87
2018-08-03T01:33:20.852Z,101165.10
2018-08-03T01:35:49.190Z,101169.95
2018-08-03T01:38:17.582Z,101160.60
2018-08-03T01:40:45.916Z,101160.74
2018-08-03T01:43:14.297Z,101155.00
2018-08-03T01:45:42.647Z,101163.35
2018-08-03T01:48:11.004Z,101162.69
2018-08-03T01:50:40.378Z,101157.15
2018-08-03T01:53:08.740Z,101155.70
2018-08-03T01:55:37.141Z,101150.86
2018-08-03T01:58:05.758Z,101154.34
2018-08-03T02:00:34.300Z,101146.53
2018-08-03T02:03:02.660Z,101151.94
2018-08-03T02:05:31.074Z,101155.32
2018-08-03T02:07:59.433Z,101147.84
2018-08-03T02:10:27.790Z,101150.80
2018-08-03T02:12:56.120Z,101159.23
2018-08-03T02:15:24.467Z,101161.17
2018-08-03T02:17:52.803Z,101159.23
2018-08-03T02:20:21.693Z,101159.52
2018-08-03T02:22:50.191Z,101154.47
2018-08-03T02:25:18.514Z,101152.23
2018-08-03T02:27:46.867Z,101156.84
2018-08-03T02:30:15.248Z,101154.84
2018-08-03T02:32:43.618Z,101155.02
2018-08-03T02:35:11.920Z,101153.41
2018-08-03T02:37:40.262Z,101154.02
2018-08-03T02:40:08.679Z,101153.64
2018-08-03T02:42:37.031Z,101160.16
2018-08-03T02:45:05.490Z,101158.98
2018-08-03T02:47:33.811Z,101161.23
2018-08-03T02:50:02.159Z,101160.76
2018-08-03T02:52:30.893Z,101172.47
2018-08-03T02:55:03.294Z,101176.45
2018-08-03T02:57:31.688Z,101171.47
2018-08-03T03:00:00.072Z,101168.27
2018-08-03T03:02:28.748Z,101168.63
2018-08-03T03:04:57.648Z,101167.06
2018-08-03T03:07:26.160Z,101172.19
2018-08-03T03:09:54.456Z,101176.22
2018-08-03T03:12:22.784Z,101173.85
2018-08-03T03:14:51.142Z,101178.72
2018-08-03T03:17:19.956Z,101179.86
2018-08-03T03:19:48.336Z,101183.98
2018-08-03T03:22:16.679Z,101170.42
2018-08-03T03:24:45.016Z,101181.01
2018-08-03T03:27:15.367Z,101184.63
2018-08-03T03:29:43.741Z,101184.11
2018-08-03T03:32:12.172Z,101183.17
2018-08-03T03:34:40.550Z,101179.55
2018-08-03T03:37:08.964Z,101180.33
2018-08-03T03:39:37.366Z,101185.66
2018-08-03T03:42:05.806Z,101181.34
2018-08-03T03:44:34.138Z,101177.20
2018-08-03T03:47:02.574Z,101184.16
2018-08-03T03:49:30.974Z,101186.46
2018-08-03T03:51:59.407Z,101188.41
2018-08-03T03:54:27.772Z,101179.86
2018-08-03T03:56:56.195Z,101182.93
2018-08-03T03:59:24.628Z,101191.75
2018-08-03T04:01:52.991Z,101194.35
2018-08-03T04:04:21.405Z,101185.77
2018-08-03T04:06:49.796Z,101199.03
2018-08-03T04:09:18.189Z,101189.83
2018-08-03T04:11:46.886Z,101199.43
2018-08-03T04:14:15.283Z,101200.55
2018-08-03T04:16:43.681Z,101198.31
2018-08-03T04:19:12.110Z,101203.73
2018-08-03T04:21:40.574Z,101201.53
2018-08-03T04:24:08.985Z,101196.58
2018-08-03T04:26:37.357Z,101199.31
2018-08-03T04:29:05.768Z,101188.38
2018-08-03T04:31:34.146Z,101193.33
2018-08-03T04:34:02.467Z,101194.23
2018-08-03T04:36:30.822Z,101191.91
2018-08-03T04:38:59.180Z,101195.03
2018-08-03T04:41:28.535Z,101196.58
2018-08-03T04:43:58.547Z,101197.32
2018-08-03T04:46:26.919Z,101193.30
2018-08-03T04:48:55.221Z,101196.73
2018-08-03T04:51:23.540Z,101197.28
2018-08-03T04:53:51.900Z,101188.58
2018-08-03T04:56:20.275Z,101190.13
2018-08-03T04:58:48.569Z,101185.52
2018-08-03T05:01:16.980Z,101191.88
2018-08-03T05:03:45.357Z,101185.23
2018-08-03T05:06:13.723Z,101185.08
2018-08-03T05:08:42.107Z,101190.45
2018-08-03T05:11:10.477Z,101195.59
2018-08-03T05:13:38.828Z,101195.30
2018-08-03T05:16:07.189Z,101194.20
2018-08-03T05:18:35.531Z,101193.47
2018-08-03T05:21:03.911Z,101192.77
2018-08-03T05:23:32.296Z,101194.67
2018-08-03T05:26:00.694Z,101193.61
2018-08-03T05:28:29.015Z,101196.17
2018-08-03T05:30:57.414Z,101197.70
2018-08-03T05:33:25.772Z,101194.73
2018-08-03T05:35:54.562Z,101195.24
2018-08-03T05:38:22.945Z,101196.01
2018-08-03T05:40:51.288Z,101200.38
2018-08-03T05:43:20.017Z,101199.79
2018-08-03T05:45:48.519Z,101199.30
2018-08-03T05:48:16.874Z,101198.25
2018-08-03T05:50:45.249Z,101202.23
2018-08-03T05:53:13.534Z,101198.52
2018-08-03T05:55:41.916Z,101195.11
2018-08-03T05:58:10.271Z,101194.23
2018-08-03T06:00:38.626Z,101195.69
2018-08-03T06:03:06.985Z,101194.97
2018-08-03T06:05:35.440Z,101204.62
2018-08-03T06:08:03.877Z,101204.77
2018-08-03T06:10:32.250Z,101210.14
2018-08-03T06:13:00.627Z,101215.00
2018-08-03T06:15:29.034Z,101212.55
2018-08-03T06:17:57.380Z,101219.67
2018-08-03T06:20:25.787Z,101214.61
2018-08-03T06:22:54.177Z,101212.20
2018-08-03T06:25:22.556Z,101210.59
2018-08-03T06:27:50.906Z,101209.38
2018-08-03T06:30:20.044Z,101208.84
2018-08-03T06:32:48.452Z,101213.45
2018-08-03T06:35:16.861Z,101213.00
2018-08-03T06:37:45.219Z,101205.05
2018-08-03T06:40:13.696Z,101204.06
2018-08-03T06:42:42.107Z,101205.27
2018-08-03T06:45:10.498Z,101202.70
2018-08-03T06:47:38.881Z,101203.81
2018-08-03T06:50:07.352Z,101197.33
2018-08-03T06:52:35.682Z,101203.34
2018-08-03T06:55:04.068Z,101204.55
2018-08-03T06:57:32.465Z,101200.70
2018-08-03T07:00:00.808Z,101198.59
2018-08-03T07:02:29.183Z,101190.51
2018-08-03T07:04:57.599Z,101200.64
2018-08-03T07:07:26.033Z,101202.69
2018-08-03T07:09:54.337Z,101200.31
2018-08-03T07:12:22.714Z,101205.55
2018-08-03T07:14:51.188Z,101208.08
2018-08-03T07:17:19.500Z,101207.80
2018-08-03T07:19:47.856Z,101210.93
2018-08-03T07:22:16.302Z,101208.58
2018-08-03T07:24:45.138Z,101207.09
2018-08-03T07:27:13.479Z,101206.72
2018-08-03T07:29:42.536Z,101208.48
2018-08-03T07:32:10.915Z,101215.57
2018-08-03T07:34:39.287Z,101221.79
2018-08-03T07:37:08.339Z,101217.47
2018-08-03T07:39:36.702Z,101218.81
2018-08-03T07:42:05.091Z,101229.09
2018-08-03T07:44:33.418Z,101236.39
2018-08-03T07:47:01.823Z,101225.64
2018-08-03T07:49:30.474Z,101222.47
2018-08-03T07:51:58.884Z,101221.52
2018-08-03T07:54:27.218Z,101228.00
2018-08-03T07:56:55.592Z,101222.12
2018-08-03T07:59:23.939Z,101222.23
2018-08-03T08:01:52.343Z,101228.55
2018-08-03T08:04:21.134Z,101229.27
2018-08-03T08:06:49.539Z,101217.39
2018-08-03T08:09:17.914Z,101226.09
2018-08-03T08:11:46.281Z,101221.20
2018-08-03T08:14:15.372Z,101218.33
2018-08-03T08:16:43.739Z,101213.73
2018-08-03T08:19:12.097Z,101218.61
2018-08-03T08:21:40.524Z,101217.59
2018-08-03T08:24:08.910Z,101213.55
2018-08-03T08:26:37.300Z,101209.22
2018-08-03T08:29:05.925Z,101215.61
2018-08-03T08:31:34.420Z,101215.81
2018-08-03T08:34:02.769Z,101208.58
2018-08-03T08:36:31.172Z,101202.89
2018-08-03T08:38:59.516Z,101215.44
2018-08-03T08:41:27.959Z,101210.37
2018-08-03T08:43:56.548Z,101221.20
2018-08-03T08:46:24.733Z,101210.61
2018-08-03T08:48:53.188Z,101218.71
2018-08-03T08:51:21.512Z,101214.83
2018-08-03T08:53:49.896Z,101210.53
2018-08-03T08:56:18.367Z,101197.62
2018-08-03T08:58:46.772Z,101195.93
2018-08-03T09:01:15.210Z,101193.14
2018-08-03T09:03:43.560Z,101189.55
2018-08-03T09:06:11.947Z,101185.89
2018-08-03T09:08:40.313Z,101191.80
2018-08-03T09:11:09.333Z,101185.36
2018-08-03T09:13:37.797Z,101175.19
2018-08-03T09:16:07.336Z,101179.55
2018-08-03T09:18:35.766Z,101171.75
2018-08-03T09:21:04.105Z,101177.64
2018-08-03T09:23:33.474Z,101170.42
2018-08-03T09:26:01.904Z,101169.91
2018-08-03T09:28:30.278Z,101167.08
2018-08-03T09:30:58.746Z,101166.87
2018-08-03T09:33:27.154Z,101165.41
2018-08-03T09:35:55.584Z,101156.75
2018-08-03T09:38:23.974Z,101153.86
2018-08-03T09:40:52.440Z,101150.97
2018-08-03T09:43:20.840Z,101147.67
2018-08-03T09:45:49.273Z,101147.60
2018-08-03T09:48:17.693Z,101138.42
2018-08-03T09:50:46.063Z,101142.61
2018-08-03T09:53:14.416Z,101146.54
2018-08-03T09:55:43.670Z,101136.91
2018-08-03T09:58:12.017Z,101128.56
2018-08-03T10:00:45.754Z,101129.84
2018-08-03T10:03:14.076Z,101128.33
2018-08-03T10:09:20.085Z,101133.06
2018-08-03T10:11:50.503Z,101122.70
2018-08-03T10:14:18.918Z,101133.43
2018-08-03T10:16:47.292Z,101120.69
2018-08-03T10:19:15.692Z,101113.66
2018-08-03T10:21:44.053Z,101113.19
2018-08-03T10:24:12.549Z,101124.16
2018-08-03T10:26:40.928Z,101111.99
2018-08-03T10:29:09.308Z,101115.20
2018-08-03T10:31:37.662Z,101109.55
2018-08-03T10:34:06.038Z,101108.95
2018-08-03T10:36:34.505Z,101105.25
2018-08-03T10:39:02.955Z,101092.23
2018-08-03T10:41:31.334Z,101095.97
2018-08-03T10:43:59.716Z,101088.16
2018-08-03T10:46:28.149Z,101088.91
2018-08-03T10:48:56.552Z,101081.93
2018-08-03T10:51:24.963Z,101072.44
2018-08-03T10:53:53.415Z,101071.20
2018-08-03T10:56:21.918Z,101069.05
2018-08-03T10:58:50.258Z,101075.23
2018-08-03T11:01:18.627Z,101074.09
2018-08-03T11:03:47.076Z,101075.41
2018-08-03T11:06:15.752Z,101077.45
2018-08-03T11:08:46.943Z,101073.40
2018-08-03T11:11:15.692Z,101073.90
2018-08-03T11:13:44.550Z,101065.80
2018-08-03T11:16:13.275Z,101067.23
2018-08-03T11:18:41.610Z,101071.00
2018-08-03T11:21:10.305Z,101070.25
2018-08-03T11:23:38.730Z,101064.71
2018-08-03T11:26:07.258Z,101071.14
2018-08-03T11:28:36.577Z,101060.11
2018-08-03T11:31:04.936Z,101057.47
2018-08-03T11:33:33.329Z,101056.53
2018-08-03T11:36:01.722Z,101060.92
2018-08-03T11:38:30.062Z,101065.41
2018-08-03T11:40:58.631Z,101056.01
2018-08-03T11:43:27.194Z,101047.63
2018-08-03T11:45:55.757Z,101043.47
2018-08-03T11:48:24.107Z,101044.73
2018-08-03T11:50:52.484Z,101037.30
2018-08-03T11:53:21.268Z,101032.61
2018-08-03T11:55:49.757Z,101029.83
2018-08-03T11:58:22.487Z,101024.58
2018-08-03T12:00:50.831Z,101026.99
2018-08-03T12:03:19.311Z,101021.75
2018-08-03T12:05:48.371Z,101017.20
2018-08-03T12:08:16.753Z,101010.66
2018-08-03T12:10:45.475Z,101007.05
2018-08-03T12:13:13.814Z,101008.37
2018-08-03T12:15:42.285Z,101009.62
2018-08-03T12:18:13.850Z,101014.13
2018-08-03T12:20:43.456Z,101014.50
2018-08-03T12:23:11.868Z,101011.77
2018-08-03T12:25:41.280Z,101011.66
2018-08-03T12:28:10.159Z,101000.09
2018-08-03T12:30:38.685Z,100999.12
2018-08-03T12:33:07.054Z,100995.27
2018-08-03T12:35:35.659Z,100997.19
2018-08-03T12:38:04.163Z,100993.67
2018-08-03T12:40:32.544Z,100995.96
2018-08-03T12:43:00.899Z,100991.72
2018-08-03T12:45:33.995Z,100985.02
2018-08-03T12:47:58.110Z,100980.63
2018-08-03T12:50:26.511Z,100980.81
2018-08-03T12:52:55.019Z,100976.47
2018-08-03T12:55:23.433Z,100971.78
2018-08-03T12:57:51.794Z,100969.52
2018-08-03T13:00:20.223Z,100965.87
2018-08-03T13:02:48.604Z,100962.09
2018-08-03T13:05:17.006Z,100962.94
2018-08-03T13:07:45.456Z,100963.55
2018-08-03T13:10:13.724Z,100960.91
2018-08-03T13:12:42.049Z,100951.84
2018-08-03T13:15:10.464Z,100953.25
2018-08-03T13:17:38.801Z,100947.84
2018-08-03T13:20:09.200Z,100951.41
2018-08-03T13:22:37.612Z,100946.16
2018-08-03T13:25:06.449Z,100939.50
2018-08-03T13:27:34.832Z,100945.19
2018-08-03T13:30:03.330Z,100938.75
2018-08-03T13:32:32.827Z,100938.75
2018-08-03T13:35:01.214Z,100921.03
2018-08-03T13:37:29.575Z,100919.75
2018-08-03T13:39:57.939Z,100927.22
2018-08-03T13:42:26.367Z,100923.05
2018-08-03T13:44:54.716Z,100913.59
2018-08-03T13:47:23.101Z,100910.35
2018-08-03T13:49:51.474Z,100910.14
2018-08-03T13:52:19.803Z,100902.44
2018-08-03T13:54:48.151Z,100907.70
2018-08-03T13:57:16.510Z,100901.52
2018-08-03T13:59:44.857Z,100898.55
2018-08-03T14:02:25.252Z,100895.97
2018-08-03T14:04:54.179Z,100892.97
2018-08-03T14:07:22.910Z,100886.48
2018-08-03T14:09:51.283Z,100889.45
2018-08-03T14:12:19.723Z,100884.48
2018-08-03T14:14:48.208Z,100888.22
2018-08-03T14:17:16.548Z,100884.31
2018-08-03T14:19:44.896Z,100879.73
2018-08-03T14:22:13.368Z,100881.83
2018-08-03T14:24:41.691Z,100878.83
2018-08-03T14:27:10.057Z,100873.79
2018-08-03T14:29:38.426Z,100869.09
2018-08-03T14:32:06.840Z,100873.91
2018-08-03T14:34:35.502Z,100869.26
2018-08-03T14:37:03.858Z,100871.29
2018-08-03T14:39:32.207Z,100866.29
2018-08-03T14:42:00.522Z,100861.72
2018-08-03T14:44:28.946Z,100854.12
2018-08-03T14:46:57.319Z,100856.82
2018-08-03T14:49:25.734Z,100850.06
2018-08-03T14:51:54.095Z,100854.52
2018-08-03T14:54:22.589Z,100850.26
2018-08-03T14:56:50.935Z,100849.93
2018-08-03T14:59:19.275Z,100856.55
2018-08-03T15:01:47.730Z,100849.68
2018-08-03T15:04:16.096Z,100844.94
2018-08-03T15:06:44.473Z,100843.23
2018-08-03T15:09:13.216Z,100837.96
2018-08-03T15:11:41.653Z,100843.66
2018-08-03T15:14:10.063Z,100838.84
2018-08-03T15:16:38.475Z,100834.02
2018-08-03T15:19:07.090Z,100837.40
2018-08-03T15:21:35.495Z,100827.98
2018-08-03T15:24:03.897Z,100824.05
2018-08-03T15:26:32.371Z,100819.42
2018-08-03T15:29:02.104Z,100817.26
2018-08-03T15:31:31.238Z,100813.92
2018-08-03T15:33:59.640Z,100807.84
2018-08-03T15:36:27.989Z,100807.03
2018-08-03T15:38:56.395Z,100806.91
2018-08-03T15:41:24.890Z,100802.94
2018-08-03T15:43:53.232Z,100807.20
2018-08-03T15:46:21.713Z,100804.36
2018-08-03T15:48:50.072Z,100794.58
2018-08-03T15:51:18.675Z,100795.22
2018-08-03T15:53:47.072Z,100793.59
2018-08-03T15:56:16.077Z,100792.92
2018-08-03T15:58:44.517Z,100790.23
2018-08-03T16:01:12.850Z,100784.58
2018-08-03T16:03:41.295Z,100786.95
2018-08-03T16:06:09.648Z,100782.62
2018-08-03T16:08:37.994Z,100777.26
2018-08-03T16:11:06.941Z,100778.10
2018-08-03T16:13:35.272Z,100776.28
2018-08-03T16:16:03.569Z,100766.49
2018-08-03T16:18:31.875Z,100771.59
2018-08-03T16:21:00.278Z,100765.43
2018-08-03T16:23:28.650Z,100765.08
2018-08-03T16:25:57.143Z,100760.98
2018-08-03T16:28:25.596Z,100762.63
2018-08-03T16:30:56.925Z,100754.78
2018-08-03T16:33:25.300Z,100752.02
2018-08-03T16:35:54.029Z,100751.66
2018-08-03T16:38:22.374Z,100747.06
2018-08-03T16:40:50.738Z,100743.73
2018-08-03T16:43:19.145Z,100746.41
2018-08-03T16:45:48.300Z,100742.41
2018-08-03T16:48:16.675Z,100741.78
2018-08-03T16:50:45.050Z,100740.31
2018-08-03T16:53:13.395Z,100742.59
2018-08-03T16:55:41.791Z,100741.09
2018-08-03T16:58:10.196Z,100740.77
2018-08-03T17:00:38.691Z,100743.89
2018-08-03T17:03:07.015Z,100741.44
2018-08-03T17:05:35.354Z,100744.77
2018-08-03T17:08:04.019Z,100741.78
2018-08-03T17:10:32.369Z,100740.46
2018-08-03T17:13:00.752Z,100739.28
2018-08-03T17:15:29.124Z,100738.47
2018-08-03T17:17:59.212Z,100736.74
2018-08-03T17:20:27.594Z,100738.05
2018-08-03T17:22:55.966Z,100732.22
2018-08-03T17:25:24.446Z,100735.39
2018-08-03T17:27:52.959Z,100738.37
2018-08-03T17:30:21.316Z,100736.88
2018-08-03T17:32:49.727Z,100736.70
2018-08-03T17:35:18.100Z,100740.34
2018-08-03T17:37:46.610Z,100737.67
2018-08-03T17:40:14.929Z,100736.00
2018-08-03T17:42:43.448Z,100739.65
2018-08-03T17:45:11.765Z,100732.48
2018-08-03T17:47:40.147Z,100735.68
2018-08-03T17:50:08.960Z,100738.72
2018-08-03T17:52:37.340Z,100728.55
2018-08-03T17:55:05.770Z,100733.58
2018-08-03T17:57:34.111Z,100726.63
2018-08-03T18:00:02.400Z,100735.27
2018-08-03T18:02:30.806Z,100735.60
2018-08-03T18:04:59.361Z,100735.60
2018-08-03T18:07:27.846Z,100735.10
2018-08-03T18:09:56.427Z,100741.87
2018-08-03T18:12:24.807Z,100741.55
2018-08-03T18:14:53.238Z,100738.55
2018-08-03T18:17:21.593Z,100742.66
2018-08-03T18:19:49.939Z,100741.16
2018-08-03T18:22:18.302Z,100739.98
2018-08-03T18:24:47.462Z,100740.46
2018-08-03T18:27:15.812Z,100748.40
2018-08-03T18:29:44.217Z,100749.02
2018-08-03T18:32:14.342Z,100747.52
2018-08-03T18:34:42.780Z,100751.42
2018-08-03T18:37:11.394Z,100747.42
2018-08-03T18:42:33.036Z,100744.88
2018-08-03T18:45:02.044Z,100750.45
2018-08-03T18:47:30.604Z,100750.06
2018-08-03T18:49:59.017Z,100752.49
2018-08-03T18:52:27.337Z,100751.78
2018-08-03T18:54:55.714Z,100758.84
2018-08-03T18:57:24.071Z,100758.58
2018-08-03T18:59:52.485Z,100755.75
2018-08-03T19:02:20.826Z,100755.63
2018-08-03T19:04:49.160Z,100755.55
2018-08-03T19:07:17.580Z,100755.31
2018-08-03T19:09:45.940Z,100758.08
2018-08-03T19:12:14.305Z,100762.91
2018-08-03T19:14:42.742Z,100771.47
2018-08-03T19:17:11.231Z,100774.38
2018-08-03T19:19:39.604Z,100774.62
2018-08-03T19:22:08.129Z,100775.17
2018-08-03T19:24:36.567Z,100777.57
2018-08-03T19:27:05.215Z,100776.96
2018-08-03T19:29:34.322Z,100776.84
2018-08-03T19:32:03.992Z,100777.03
2018-08-03T19:34:32.482Z,100775.89
2018-08-03T19:37:00.906Z,100774.89
2018-08-03T19:39:29.248Z,100773.32
2018-08-03T19:41:58.264Z,100776.49
2018-08-03T19:44:26.738Z,100774.28
2018-08-03T19:46:55.195Z,100777.65
2018-08-03T19:49:24.652Z,100779.36
2018-08-03T19:51:55.863Z,100776.00
2018-08-03T19:54:25.462Z,100771.73
2018-08-03T19:56:54.278Z,100776.13
2018-08-03T19:59:24.312Z,100769.68
2018-08-03T20:01:52.743Z,100771.62
2018-08-03T20:04:21.281Z,100771.29
2018-08-03T20:06:49.820Z,100765.70
2018-08-03T20:09:20.049Z,100769.36
2018-08-03T20:11:48.503Z,100771.71
2018-08-03T20:14:17.946Z,100779.96
2018-08-03T20:16:46.381Z,100776.14
2018-08-03T20:19:14.760Z,100778.82
2018-08-03T20:21:43.140Z,100781.61
2018-08-03T20:24:11.768Z,100779.36
2018-08-03T20:26:40.924Z,100776.92
2018-08-03T20:29:09.636Z,100779.77
2018-08-03T20:31:38.102Z,100779.84
2018-08-03T20:34:06.684Z,100782.23
2018-08-03T20:36:36.028Z,100781.41
2018-08-03T20:39:08.734Z,100783.26
2018-08-03T20:41:37.250Z,100780.03
2018-08-03T20:44:05.727Z,100777.07
2018-08-03T20:46:34.341Z,100774.69
2018-08-03T20:49:02.759Z,100782.67
2018-08-03T20:51:31.178Z,100774.59
2018-08-03T20:54:00.089Z,100781.66
2018-08-03T20:56:28.925Z,100777.39
2018-08-03T20:58:57.239Z,100779.33
2018-08-03T21:01:25.617Z,100784.03
2018-08-03T21:03:53.946Z,100778.98
2018-08-03T21:06:22.307Z,100780.33
2018-08-03T21:08:50.810Z,100785.06
2018-08-03T21:11:19.208Z,100786.45
2018-08-03T21:13:47.717Z,100783.72
2018-08-03T21:16:16.129Z,100786.27
2018-08-03T21:18:44.444Z,100784.24
2018-08-03T21:21:12.904Z,100788.30
2018-08-03T21:23:42.427Z,100792.27
2018-08-03T21:26:10.771Z,100789.64
2018-08-03T21:28:39.110Z,100788.19
2018-08-03T21:31:07.536Z,100785.59
2018-08-03T21:33:35.865Z,100782.14
2018-08-03T21:36:04.225Z,100778.69
2018-08-03T21:38:32.566Z,100771.64
2018-08-03T21:41:00.902Z,100770.36
2018-08-03T21:43:29.266Z,100767.52
2018-08-03T21:45:57.602Z,100768.00
2018-08-03T21:48:25.971Z,100763.72
2018-08-03T21:50:54.361Z,100755.02
2018-08-03T21:53:23.601Z,100756.81
2018-08-03T21:55:52.093Z,100755.14
2018-08-03T21:58:20.495Z,100755.02
2018-08-03T22:00:48.964Z,100760.38
2018-08-03T22:03:17.327Z,100763.02
2018-08-03T22:05:45.703Z,100763.72
2018-08-03T22:08:14.185Z,100765.15
2018-08-03T22:10:42.591Z,100760.73
2018-08-03T22:13:10.910Z,100766.81
2018-08-03T22:15:39.548Z,100759.31
2018-08-03T22:18:07.903Z,100757.04
2018-08-03T22:20:36.266Z,100762.53
2018-08-03T22:23:04.680Z,100762.65
2018-08-03T22:25:32.983Z,100766.34
2018-08-03T22:28:01.317Z,100762.52
2018-08-03T22:30:29.753Z,100758.09
2018-08-03T22:32:58.180Z,100756.14
2018-08-03T22:35:26.495Z,100755.23
2018-08-03T22:37:54.845Z,100751.14
2018-08-03T22:40:23.223Z,100750.90
2018-08-03T22:42:51.916Z,100750.77
2018-08-03T22:45:20.268Z,100750.05
2018-08-03T22:47:48.669Z,100750.41
2018-08-03T22:50:16.998Z,100741.83
2018-08-03T22:52:45.347Z,100737.04
2018-08-03T22:55:16.666Z,100738.78
2018-08-03T22:57:44.983Z,100734.05
2018-08-03T23:00:13.312Z,100730.09
2018-08-03T23:02:41.681Z,100730.66
2018-08-03T23:05:10.051Z,100735.03
2018-08-03T23:07:38.413Z,100738.03
2018-08-03T23:10:07.054Z,100732.58
2018-08-03T23:12:35.360Z,100730.05
2018-08-03T23:15:03.807Z,100731.64
2018-08-03T23:17:32.162Z,100736.62
2018-08-03T23:20:00.492Z,100739.78
2018-08-03T23:22:28.845Z,100735.17
2018-08-03T23:24:57.260Z,100736.04
2018-08-03T23:27:25.605Z,100739.05
2018-08-03T23:29:53.978Z,100731.05
2018-08-03T23:32:22.341Z,100724.98
2018-08-03T23:34:50.739Z,100722.91
2018-08-03T23:37:19.043Z,100722.52
2018-08-03T23:39:47.465Z,100720.50
2018-08-03T23:42:15.790Z,100720.62
2018-08-03T23:44:44.167Z,100712.83
2018-08-03T23:47:12.464Z,100714.19
2018-08-03T23:49:41.197Z,100714.19
2018-08-03T23:52:09.943Z,100713.21
2018-08-03T23:54:38.325Z,100715.00
2018-08-03T23:57:06.671Z,100706.72
2018-08-03T23:59:35.032Z,100710.31
